sensor_id;sensor_type;location;lat;lon;timestamp;temperature;humidity
15231;DHT22;32569;51.762;8.564;2024-01-30T00:00:16;4.80;99.90
15231;DHT22;32569;51.762;8.564;2024-01-30T00:02:43;4.70;99.90
15231;DHT22;32569;51.762;8.564;2024-01-30T00:05:11;4.80;99.90
15231;DHT22;32569;51.762;8.564;2024-01-30T00:07:39;4.80;99.90
15231;DHT22;32569;51.762;8.564;2024-01-30T00:10:06;4.80;99.90
15231;DHT22;32569;51.762;8.564;2024-01-30T00:12:32;4.80;99.90
15231;DHT22;32569;51.762;8.564;2024-01-30T00:14:59;4.70;99.90
15231;DHT22;32569;51.762;8.564;2024-01-30T00:17:26;4.60;99.90
15231;DHT22;32569;51.762;8.564;2024-01-30T00:19:52;4.60;99.90
15231;DHT22;32569;51.762;8.564;2024-01-30T00:22:19;4.60;99.90
15231;DHT22;32569;51.762;8.564;2024-01-30T00:24:47;4.60;99.90
15231;DHT22;32569;51.762;8.564;2024-01-30T00:27:14;4.60;99.90
15231;DHT22;32569;51.762;8.564;2024-01-30T00:29:40;4.70;99.90
15231;DHT22;32569;51.762;8.564;2024-01-30T00:32:07;4.70;99.90
15231;DHT22;32569;51.762;8.564;2024-01-30T00:34:33;4.60;99.90
15231;DHT22;32569;51.762;8.564;2024-01-30T00:37:00;4.40;99.90
15231;DHT22;32569;51.762;8.564;2024-01-30T00:39:27;4.30;99.90
15231;DHT22;32569;51.762;8.564;2024-01-30T00:41:54;4.50;99.90
15231;DHT22;32569;51.762;8.564;2024-01-30T00:44:21;4.50;99.90
15231;DHT22;32569;51.762;8.564;2024-01-30T00:46:48;4.50;99.90
15231;DHT22;32569;51.762;8.564;2024-01-30T00:49:14;4.40;99.90
15231;DHT22;32569;51.762;8.564;2024-01-30T00:51:41;4.40;99.90
15231;DHT22;32569;51.762;8.564;2024-01-30T00:54:08;4.30;99.90
15231;DHT22;32569;51.762;8.564;2024-01-30T00:56:34;4.40;99.90
15231;DHT22;32569;51.762;8.564;2024-01-30T00:59:02;4.40;99.90
15231;DHT22;32569;51.762;8.564;2024-01-30T01:01:29;4.50;99.90
15231;DHT22;32569;51.762;8.564;2024-01-30T01:03:55;4.50;99.90
15231;DHT22;32569;51.762;8.564;2024-01-30T01:06:23;4.50;99.90
15231;DHT22;32569;51.762;8.564;2024-01-30T01:08:50;4.50;99.90
15231;DHT22;32569;51.762;8.564;2024-01-30T01:11:16;4.30;99.90
15231;DHT22;32569;51.762;8.564;2024-01-30T01:13:43;4.30;99.90
15231;DHT22;32569;51.762;8.564;2024-01-30T01:16:20;4.30;99.90
15231;DHT22;32569;51.762;8.564;2024-01-30T01:18:47;4.20;99.90
15231;DHT22;32569;51.762;8.564;2024-01-30T01:21:19;4.30;99.90
15231;DHT22;32569;51.762;8.564;2024-01-30T01:23:46;4.20;99.90
15231;DHT22;32569;51.762;8.564;2024-01-30T01:26:19;4.10;99.90
15231;DHT22;32569;51.762;8.564;2024-01-30T01:28:45;4.20;99.90
15231;DHT22;32569;51.762;8.564;2024-01-30T01:31:15;4.10;99.90
15231;DHT22;32569;51.762;8.564;2024-01-30T01:33:44;4.10;99.90
15231;DHT22;32569;51.762;8.564;2024-01-30T01:36:11;4.00;99.90
15231;DHT22;32569;51.762;8.564;2024-01-30T01:38:37;4.00;99.90
15231;DHT22;32569;51.762;8.564;2024-01-30T01:41:04;4.00;99.90
15231;DHT22;32569;51.762;8.564;2024-01-30T01:43:30;4.00;99.90
15231;DHT22;32569;51.762;8.564;2024-01-30T01:45:57;4.20;99.90
15231;DHT22;32569;51.762;8.564;2024-01-30T01:48:24;4.10;99.90
15231;DHT22;32569;51.762;8.564;2024-01-30T01:50:52;4.00;99.90
15231;DHT22;32569;51.762;8.564;2024-01-30T01:53:19;4.10;99.90
15231;DHT22;32569;51.762;8.564;2024-01-30T01:55:46;4.00;99.90
15231;DHT22;32569;51.762;8.564;2024-01-30T01:58:14;4.00;99.90
15231;DHT22;32569;51.762;8.564;2024-01-30T02:00:41;3.90;99.90
15231;DHT22;32569;51.762;8.564;2024-01-30T02:03:11;4.00;99.90
15231;DHT22;32569;51.762;8.564;2024-01-30T02:05:41;4.10;99.90
15231;DHT22;32569;51.762;8.564;2024-01-30T02:08:09;4.10;99.90
15231;DHT22;32569;51.762;8.564;2024-01-30T02:10:36;4.10;99.90
15231;DHT22;32569;51.762;8.564;2024-01-30T02:13:03;4.20;99.90
15231;DHT22;32569;51.762;8.564;2024-01-30T02:15:30;4.20;99.90
15231;DHT22;32569;51.762;8.564;2024-01-30T02:17:56;4.20;99.90
15231;DHT22;32569;51.762;8.564;2024-01-30T02:20:25;4.20;99.90
15231;DHT22;32569;51.762;8.564;2024-01-30T02:22:54;4.30;99.90
15231;DHT22;32569;51.762;8.564;2024-01-30T02:25:30;4.20;99.90
15231;DHT22;32569;51.762;8.564;2024-01-30T02:27:57;4.10;99.90
15231;DHT22;32569;51.762;8.564;2024-01-30T02:30:23;4.10;99.90
15231;DHT22;32569;51.762;8.564;2024-01-30T02:32:50;4.10;99.90
15231;DHT22;32569;51.762;8.564;2024-01-30T02:35:20;3.90;99.90
15231;DHT22;32569;51.762;8.564;2024-01-30T02:37:46;3.70;99.90
15231;DHT22;32569;51.762;8.564;2024-01-30T02:40:14;3.80;99.90
15231;DHT22;32569;51.762;8.564;2024-01-30T02:42:41;3.70;99.90
15231;DHT22;32569;51.762;8.564;2024-01-30T02:45:09;3.70;99.90
15231;DHT22;32569;51.762;8.564;2024-01-30T02:47:36;3.70;99.90
15231;DHT22;32569;51.762;8.564;2024-01-30T02:50:09;3.70;99.90
15231;DHT22;32569;51.762;8.564;2024-01-30T02:52:36;3.70;99.90
15231;DHT22;32569;51.762;8.564;2024-01-30T02:55:03;3.60;99.90
15231;DHT22;32569;51.762;8.564;2024-01-30T02:57:31;3.60;99.90
15231;DHT22;32569;51.762;8.564;2024-01-30T02:59:58;3.70;99.90
15231;DHT22;32569;51.762;8.564;2024-01-30T03:02:24;3.90;99.90
15231;DHT22;32569;51.762;8.564;2024-01-30T03:04:54;3.90;99.90
15231;DHT22;32569;51.762;8.564;2024-01-30T03:07:20;4.00;99.90
15231;DHT22;32569;51.762;8.564;2024-01-30T03:09:47;4.00;99.90
15231;DHT22;32569;51.762;8.564;2024-01-30T03:12:13;4.00;99.90
15231;DHT22;32569;51.762;8.564;2024-01-30T03:14:41;4.00;99.90
15231;DHT22;32569;51.762;8.564;2024-01-30T03:17:11;3.90;99.90
15231;DHT22;32569;51.762;8.564;2024-01-30T03:19:38;3.80;99.90
15231;DHT22;32569;51.762;8.564;2024-01-30T03:22:04;3.80;99.90
15231;DHT22;32569;51.762;8.564;2024-01-30T03:24:33;3.70;99.90
15231;DHT22;32569;51.762;8.564;2024-01-30T03:27:00;3.60;99.90
15231;DHT22;32569;51.762;8.564;2024-01-30T03:29:26;3.70;99.90
15231;DHT22;32569;51.762;8.564;2024-01-30T03:31:54;3.80;99.90
15231;DHT22;32569;51.762;8.564;2024-01-30T03:34:21;3.70;99.90
15231;DHT22;32569;51.762;8.564;2024-01-30T03:36:48;3.80;99.90
15231;DHT22;32569;51.762;8.564;2024-01-30T03:39:14;3.80;99.90
15231;DHT22;32569;51.762;8.564;2024-01-30T03:41:42;3.70;99.90
15231;DHT22;32569;51.762;8.564;2024-01-30T03:44:09;3.60;99.90
15231;DHT22;32569;51.762;8.564;2024-01-30T03:46:39;3.60;99.90
15231;DHT22;32569;51.762;8.564;2024-01-30T03:49:07;3.60;99.90
15231;DHT22;32569;51.762;8.564;2024-01-30T03:51:34;3.70;99.90
15231;DHT22;32569;51.762;8.564;2024-01-30T03:54:00;3.70;99.90
15231;DHT22;32569;51.762;8.564;2024-01-30T03:56:27;3.70;99.90
15231;DHT22;32569;51.762;8.564;2024-01-30T03:58:53;3.70;99.90
15231;DHT22;32569;51.762;8.564;2024-01-30T04:01:21;3.70;99.90
15231;DHT22;32569;51.762;8.564;2024-01-30T04:03:50;3.50;99.90
15231;DHT22;32569;51.762;8.564;2024-01-30T04:06:20;3.50;99.90
15231;DHT22;32569;51.762;8.564;2024-01-30T04:08:47;3.40;99.90
15231;DHT22;32569;51.762;8.564;2024-01-30T04:11:14;3.40;99.90
15231;DHT22;32569;51.762;8.564;2024-01-30T04:13:43;3.60;99.90
15231;DHT22;32569;51.762;8.564;2024-01-30T04:16:19;3.50;99.90
15231;DHT22;32569;51.762;8.564;2024-01-30T04:18:46;3.60;99.90
15231;DHT22;32569;51.762;8.564;2024-01-30T04:21:13;3.70;99.90
15231;DHT22;32569;51.762;8.564;2024-01-30T04:23:41;3.80;99.90
15231;DHT22;32569;51.762;8.564;2024-01-30T04:26:08;3.90;99.90
15231;DHT22;32569;51.762;8.564;2024-01-30T04:28:34;3.80;99.90
15231;DHT22;32569;51.762;8.564;2024-01-30T04:31:01;3.70;99.90
15231;DHT22;32569;51.762;8.564;2024-01-30T04:33:28;3.60;99.90
15231;DHT22;32569;51.762;8.564;2024-01-30T04:35:54;3.60;99.90
15231;DHT22;32569;51.762;8.564;2024-01-30T04:38:21;3.60;99.90
15231;DHT22;32569;51.762;8.564;2024-01-30T04:40:49;3.50;99.90
15231;DHT22;32569;51.762;8.564;2024-01-30T04:43:16;3.50;99.90
15231;DHT22;32569;51.762;8.564;2024-01-30T04:45:42;3.60;99.90
15231;DHT22;32569;51.762;8.564;2024-01-30T04:48:09;3.60;99.90
15231;DHT22;32569;51.762;8.564;2024-01-30T04:50:36;3.60;99.90
15231;DHT22;32569;51.762;8.564;2024-01-30T04:53:05;3.70;99.90
15231;DHT22;32569;51.762;8.564;2024-01-30T04:55:36;3.70;99.90
15231;DHT22;32569;51.762;8.564;2024-01-30T04:58:04;3.60;99.90
15231;DHT22;32569;51.762;8.564;2024-01-30T05:00:30;3.60;99.90
15231;DHT22;32569;51.762;8.564;2024-01-30T05:02:57;3.80;99.90
15231;DHT22;32569;51.762;8.564;2024-01-30T05:05:24;3.80;99.90
15231;DHT22;32569;51.762;8.564;2024-01-30T05:07:50;3.80;99.90
15231;DHT22;32569;51.762;8.564;2024-01-30T05:10:17;3.80;99.90
15231;DHT22;32569;51.762;8.564;2024-01-30T05:12:43;3.80;99.90
15231;DHT22;32569;51.762;8.564;2024-01-30T05:15:11;3.70;99.90
15231;DHT22;32569;51.762;8.564;2024-01-30T05:17:38;3.60;99.90
15231;DHT22;32569;51.762;8.564;2024-01-30T05:20:06;3.50;99.90
15231;DHT22;32569;51.762;8.564;2024-01-30T05:22:32;3.60;99.90
15231;DHT22;32569;51.762;8.564;2024-01-30T05:24:59;3.60;99.90
15231;DHT22;32569;51.762;8.564;2024-01-30T05:27:26;3.60;99.90
15231;DHT22;32569;51.762;8.564;2024-01-30T05:29:52;3.60;99.90
15231;DHT22;32569;51.762;8.564;2024-01-30T05:32:20;3.50;99.90
15231;DHT22;32569;51.762;8.564;2024-01-30T05:34:47;3.50;99.90
15231;DHT22;32569;51.762;8.564;2024-01-30T05:37:15;3.40;99.90
15231;DHT22;32569;51.762;8.564;2024-01-30T05:39:43;3.50;99.90
15231;DHT22;32569;51.762;8.564;2024-01-30T05:42:09;3.50;99.90
15231;DHT22;32569;51.762;8.564;2024-01-30T05:44:36;3.50;99.90
15231;DHT22;32569;51.762;8.564;2024-01-30T05:47:06;3.40;99.90
15231;DHT22;32569;51.762;8.564;2024-01-30T05:49:34;3.40;99.90
15231;DHT22;32569;51.762;8.564;2024-01-30T05:52:03;3.40;99.90
15231;DHT22;32569;51.762;8.564;2024-01-30T05:54:29;3.40;99.90
15231;DHT22;32569;51.762;8.564;2024-01-30T05:56:56;3.40;99.90
15231;DHT22;32569;51.762;8.564;2024-01-30T05:59:23;3.40;99.90
15231;DHT22;32569;51.762;8.564;2024-01-30T06:01:49;3.40;99.90
15231;DHT22;32569;51.762;8.564;2024-01-30T06:04:16;3.40;99.90
15231;DHT22;32569;51.762;8.564;2024-01-30T06:06:44;3.30;99.90
15231;DHT22;32569;51.762;8.564;2024-01-30T06:09:10;3.30;99.90
15231;DHT22;32569;51.762;8.564;2024-01-30T06:11:38;3.30;99.90
15231;DHT22;32569;51.762;8.564;2024-01-30T06:14:04;3.30;99.90
15231;DHT22;32569;51.762;8.564;2024-01-30T06:16:31;3.30;99.90
15231;DHT22;32569;51.762;8.564;2024-01-30T06:18:58;3.40;99.90
15231;DHT22;32569;51.762;8.564;2024-01-30T06:21:25;3.30;99.90
15231;DHT22;32569;51.762;8.564;2024-01-30T06:23:53;3.40;99.90
15231;DHT22;32569;51.762;8.564;2024-01-30T06:26:20;3.40;99.90
15231;DHT22;32569;51.762;8.564;2024-01-30T06:28:46;3.40;99.90
15231;DHT22;32569;51.762;8.564;2024-01-30T06:31:13;3.40;99.90
15231;DHT22;32569;51.762;8.564;2024-01-30T06:33:40;3.50;99.90
15231;DHT22;32569;51.762;8.564;2024-01-30T06:36:08;3.50;99.90
15231;DHT22;32569;51.762;8.564;2024-01-30T06:38:34;3.50;99.90
15231;DHT22;32569;51.762;8.564;2024-01-30T06:41:02;3.70;99.90
15231;DHT22;32569;51.762;8.564;2024-01-30T06:43:29;3.80;99.90
15231;DHT22;32569;51.762;8.564;2024-01-30T06:45:55;3.70;99.90
15231;DHT22;32569;51.762;8.564;2024-01-30T06:48:22;3.70;99.90
15231;DHT22;32569;51.762;8.564;2024-01-30T06:50:49;3.60;99.90
15231;DHT22;32569;51.762;8.564;2024-01-30T06:53:16;3.60;99.90
15231;DHT22;32569;51.762;8.564;2024-01-30T06:55:42;3.60;99.90
15231;DHT22;32569;51.762;8.564;2024-01-30T06:58:14;3.60;99.90
15231;DHT22;32569;51.762;8.564;2024-01-30T07:00:41;3.60;99.90
15231;DHT22;32569;51.762;8.564;2024-01-30T07:03:08;3.60;99.90
15231;DHT22;32569;51.762;8.564;2024-01-30T07:05:37;3.60;99.90
15231;DHT22;32569;51.762;8.564;2024-01-30T07:08:04;3.60;99.90
15231;DHT22;32569;51.762;8.564;2024-01-30T07:10:31;3.70;99.90
15231;DHT22;32569;51.762;8.564;2024-01-30T07:12:57;3.70;99.90
15231;DHT22;32569;51.762;8.564;2024-01-30T07:15:26;3.70;99.90
15231;DHT22;32569;51.762;8.564;2024-01-30T07:17:53;3.70;99.90
15231;DHT22;32569;51.762;8.564;2024-01-30T07:20:19;3.80;99.90
15231;DHT22;32569;51.762;8.564;2024-01-30T07:22:46;3.80;99.90
15231;DHT22;32569;51.762;8.564;2024-01-30T07:25:13;3.80;99.90
15231;DHT22;32569;51.762;8.564;2024-01-30T07:27:40;3.80;99.90
15231;DHT22;32569;51.762;8.564;2024-01-30T07:30:07;3.90;99.90
15231;DHT22;32569;51.762;8.564;2024-01-30T07:32:35;3.90;99.90
15231;DHT22;32569;51.762;8.564;2024-01-30T07:35:02;3.90;99.90
15231;DHT22;32569;51.762;8.564;2024-01-30T07:37:29;4.00;99.90
15231;DHT22;32569;51.762;8.564;2024-01-30T07:39:55;4.00;99.90
15231;DHT22;32569;51.762;8.564;2024-01-30T07:42:22;4.00;99.90
15231;DHT22;32569;51.762;8.564;2024-01-30T07:44:49;4.10;99.90
15231;DHT22;32569;51.762;8.564;2024-01-30T07:47:18;4.10;99.90
15231;DHT22;32569;51.762;8.564;2024-01-30T07:49:46;4.10;99.90
15231;DHT22;32569;51.762;8.564;2024-01-30T07:52:13;4.10;99.90
15231;DHT22;32569;51.762;8.564;2024-01-30T07:54:40;4.20;99.90
15231;DHT22;32569;51.762;8.564;2024-01-30T07:57:07;4.20;99.90
15231;DHT22;32569;51.762;8.564;2024-01-30T07:59:33;4.30;99.90
15231;DHT22;32569;51.762;8.564;2024-01-30T08:02:00;4.30;99.90
15231;DHT22;32569;51.762;8.564;2024-01-30T08:04:26;4.40;99.90
15231;DHT22;32569;51.762;8.564;2024-01-30T08:06:54;4.40;99.90
15231;DHT22;32569;51.762;8.564;2024-01-30T08:09:21;4.50;99.90
15231;DHT22;32569;51.762;8.564;2024-01-30T08:11:50;4.60;99.90
15231;DHT22;32569;51.762;8.564;2024-01-30T08:14:20;4.60;99.90
15231;DHT22;32569;51.762;8.564;2024-01-30T08:16:47;4.80;99.90
15231;DHT22;32569;51.762;8.564;2024-01-30T08:19:14;4.90;99.90
15231;DHT22;32569;51.762;8.564;2024-01-30T08:21:41;4.90;99.90
15231;DHT22;32569;51.762;8.564;2024-01-30T08:24:09;5.00;99.90
15231;DHT22;32569;51.762;8.564;2024-01-30T08:26:36;5.20;99.90
15231;DHT22;32569;51.762;8.564;2024-01-30T08:29:02;5.30;99.90
15231;DHT22;32569;51.762;8.564;2024-01-30T08:31:29;5.30;99.90
15231;DHT22;32569;51.762;8.564;2024-01-30T08:33:56;5.30;99.90
15231;DHT22;32569;51.762;8.564;2024-01-30T08:36:26;5.30;99.90
15231;DHT22;32569;51.762;8.564;2024-01-30T08:38:53;5.30;99.90
15231;DHT22;32569;51.762;8.564;2024-01-30T08:41:21;5.30;99.90
15231;DHT22;32569;51.762;8.564;2024-01-30T08:43:54;5.20;99.90
15231;DHT22;32569;51.762;8.564;2024-01-30T08:46:20;5.20;99.90
15231;DHT22;32569;51.762;8.564;2024-01-30T08:48:47;5.20;99.90
15231;DHT22;32569;51.762;8.564;2024-01-30T08:51:14;5.20;99.90
15231;DHT22;32569;51.762;8.564;2024-01-30T08:53:40;5.30;99.90
15231;DHT22;32569;51.762;8.564;2024-01-30T08:56:07;5.30;99.90
15231;DHT22;32569;51.762;8.564;2024-01-30T08:58:35;5.30;99.90
15231;DHT22;32569;51.762;8.564;2024-01-30T09:01:02;5.40;99.90
15231;DHT22;32569;51.762;8.564;2024-01-30T09:03:30;5.50;99.90
15231;DHT22;32569;51.762;8.564;2024-01-30T09:06:00;5.60;99.90
15231;DHT22;32569;51.762;8.564;2024-01-30T09:08:26;5.60;99.90
15231;DHT22;32569;51.762;8.564;2024-01-30T09:10:53;5.70;99.90
15231;DHT22;32569;51.762;8.564;2024-01-30T09:13:20;5.80;99.90
15231;DHT22;32569;51.762;8.564;2024-01-30T09:15:48;5.90;99.90
15231;DHT22;32569;51.762;8.564;2024-01-30T09:18:14;6.00;99.90
15231;DHT22;32569;51.762;8.564;2024-01-30T09:20:41;6.10;99.90
15231;DHT22;32569;51.762;8.564;2024-01-30T09:23:08;6.10;99.90
15231;DHT22;32569;51.762;8.564;2024-01-30T09:25:34;6.20;99.90
15231;DHT22;32569;51.762;8.564;2024-01-30T09:28:01;6.20;99.90
15231;DHT22;32569;51.762;8.564;2024-01-30T09:30:28;6.30;99.90
15231;DHT22;32569;51.762;8.564;2024-01-30T09:32:56;6.40;99.90
15231;DHT22;32569;51.762;8.564;2024-01-30T09:35:22;6.50;99.90
15231;DHT22;32569;51.762;8.564;2024-01-30T09:37:49;6.60;99.90
15231;DHT22;32569;51.762;8.564;2024-01-30T09:40:17;6.60;99.90
15231;DHT22;32569;51.762;8.564;2024-01-30T09:42:46;6.70;99.90
15231;DHT22;32569;51.762;8.564;2024-01-30T09:45:14;6.80;99.90
15231;DHT22;32569;51.762;8.564;2024-01-30T09:47:42;6.80;99.90
15231;DHT22;32569;51.762;8.564;2024-01-30T09:50:11;6.70;99.90
15231;DHT22;32569;51.762;8.564;2024-01-30T09:52:38;6.90;99.90
15231;DHT22;32569;51.762;8.564;2024-01-30T09:55:05;7.10;99.90
15231;DHT22;32569;51.762;8.564;2024-01-30T09:57:32;7.20;99.90
15231;DHT22;32569;51.762;8.564;2024-01-30T09:59:58;7.30;99.90
15231;DHT22;32569;51.762;8.564;2024-01-30T10:02:25;7.40;99.90
15231;DHT22;32569;51.762;8.564;2024-01-30T10:04:52;7.40;99.90
15231;DHT22;32569;51.762;8.564;2024-01-30T10:07:20;7.40;99.90
15231;DHT22;32569;51.762;8.564;2024-01-30T10:09:47;7.40;99.90
15231;DHT22;32569;51.762;8.564;2024-01-30T10:12:14;7.50;99.90
15231;DHT22;32569;51.762;8.564;2024-01-30T10:14:42;7.40;99.90
15231;DHT22;32569;51.762;8.564;2024-01-30T10:17:09;7.50;99.90
15231;DHT22;32569;51.762;8.564;2024-01-30T10:19:37;7.60;99.90
15231;DHT22;32569;51.762;8.564;2024-01-30T10:22:04;7.70;99.90
15231;DHT22;32569;51.762;8.564;2024-01-30T10:24:33;7.70;99.90
15231;DHT22;32569;51.762;8.564;2024-01-30T10:27:06;7.80;99.90
15231;DHT22;32569;51.762;8.564;2024-01-30T10:29:33;8.00;99.90
15231;DHT22;32569;51.762;8.564;2024-01-30T10:32:00;8.20;99.90
15231;DHT22;32569;51.762;8.564;2024-01-30T10:34:27;8.30;99.90
15231;DHT22;32569;51.762;8.564;2024-01-30T10:36:59;8.40;99.90
15231;DHT22;32569;51.762;8.564;2024-01-30T10:39:29;8.40;99.90
15231;DHT22;32569;51.762;8.564;2024-01-30T10:42:01;8.40;99.90
15231;DHT22;32569;51.762;8.564;2024-01-30T10:44:36;8.40;99.90
15231;DHT22;32569;51.762;8.564;2024-01-30T10:47:06;8.30;99.90
15231;DHT22;32569;51.762;8.564;2024-01-30T10:49:39;8.30;99.90
15231;DHT22;32569;51.762;8.564;2024-01-30T10:52:08;8.40;99.90
15231;DHT22;32569;51.762;8.564;2024-01-30T10:54:36;8.50;99.90
15231;DHT22;32569;51.762;8.564;2024-01-30T10:57:05;8.50;99.90
15231;DHT22;32569;51.762;8.564;2024-01-30T10:59:33;8.60;99.90
15231;DHT22;32569;51.762;8.564;2024-01-30T11:02:00;8.70;99.90
15231;DHT22;32569;51.762;8.564;2024-01-30T11:04:26;8.80;99.90
15231;DHT22;32569;51.762;8.564;2024-01-30T11:06:54;8.90;99.90
15231;DHT22;32569;51.762;8.564;2024-01-30T11:09:20;9.10;99.90
15231;DHT22;32569;51.762;8.564;2024-01-30T11:11:50;9.20;99.90
15231;DHT22;32569;51.762;8.564;2024-01-30T11:14:24;9.30;99.90
15231;DHT22;32569;51.762;8.564;2024-01-30T11:16:51;9.30;99.90
15231;DHT22;32569;51.762;8.564;2024-01-30T11:19:24;9.30;99.90
15231;DHT22;32569;51.762;8.564;2024-01-30T11:21:52;9.40;99.90
15231;DHT22;32569;51.762;8.564;2024-01-30T11:24:19;9.40;99.90
15231;DHT22;32569;51.762;8.564;2024-01-30T11:26:48;9.40;99.90
15231;DHT22;32569;51.762;8.564;2024-01-30T11:29:16;9.50;99.90
15231;DHT22;32569;51.762;8.564;2024-01-30T11:31:52;9.60;99.90
15231;DHT22;32569;51.762;8.564;2024-01-30T11:34:20;9.60;99.90
15231;DHT22;32569;51.762;8.564;2024-01-30T11:36:51;9.60;99.90
15231;DHT22;32569;51.762;8.564;2024-01-30T11:39:20;9.60;99.90
15231;DHT22;32569;51.762;8.564;2024-01-30T11:41:48;9.60;99.90
15231;DHT22;32569;51.762;8.564;2024-01-30T11:44:16;9.50;99.90
15231;DHT22;32569;51.762;8.564;2024-01-30T11:46:43;9.60;99.90
15231;DHT22;32569;51.762;8.564;2024-01-30T11:49:11;9.60;99.90
15231;DHT22;32569;51.762;8.564;2024-01-30T11:51:38;9.70;99.90
15231;DHT22;32569;51.762;8.564;2024-01-30T11:54:05;9.90;99.90
15231;DHT22;32569;51.762;8.564;2024-01-30T11:56:32;10.00;99.90
15231;DHT22;32569;51.762;8.564;2024-01-30T11:58:58;10.10;99.90
15231;DHT22;32569;51.762;8.564;2024-01-30T12:01:25;10.10;99.90
15231;DHT22;32569;51.762;8.564;2024-01-30T12:03:52;10.20;99.90
15231;DHT22;32569;51.762;8.564;2024-01-30T12:06:20;10.10;99.90
15231;DHT22;32569;51.762;8.564;2024-01-30T12:08:56;10.10;99.90
15231;DHT22;32569;51.762;8.564;2024-01-30T12:11:23;10.20;99.90
15231;DHT22;32569;51.762;8.564;2024-01-30T12:13:51;10.20;99.90
15231;DHT22;32569;51.762;8.564;2024-01-30T12:16:18;10.30;99.90
15231;DHT22;32569;51.762;8.564;2024-01-30T12:18:44;10.30;99.90
15231;DHT22;32569;51.762;8.564;2024-01-30T12:21:11;10.40;99.90
15231;DHT22;32569;51.762;8.564;2024-01-30T12:23:39;10.40;99.90
15231;DHT22;32569;51.762;8.564;2024-01-30T12:26:06;10.50;99.90
15231;DHT22;32569;51.762;8.564;2024-01-30T12:28:33;10.60;99.90
15231;DHT22;32569;51.762;8.564;2024-01-30T12:31:01;10.70;99.90
15231;DHT22;32569;51.762;8.564;2024-01-30T12:33:28;10.70;99.90
15231;DHT22;32569;51.762;8.564;2024-01-30T12:35:56;10.70;99.90
15231;DHT22;32569;51.762;8.564;2024-01-30T12:38:22;10.70;99.90
15231;DHT22;32569;51.762;8.564;2024-01-30T12:40:54;10.60;99.90
15231;DHT22;32569;51.762;8.564;2024-01-30T12:43:21;10.70;99.90
15231;DHT22;32569;51.762;8.564;2024-01-30T12:45:48;10.80;99.90
15231;DHT22;32569;51.762;8.564;2024-01-30T12:48:15;10.90;99.90
15231;DHT22;32569;51.762;8.564;2024-01-30T12:50:42;10.90;99.90
15231;DHT22;32569;51.762;8.564;2024-01-30T12:53:08;10.80;99.90
15231;DHT22;32569;51.762;8.564;2024-01-30T12:55:35;10.80;99.90
15231;DHT22;32569;51.762;8.564;2024-01-30T12:58:03;10.80;99.90
15231;DHT22;32569;51.762;8.564;2024-01-30T13:00:31;10.90;99.90
15231;DHT22;32569;51.762;8.564;2024-01-30T13:02:58;11.00;99.90
15231;DHT22;32569;51.762;8.564;2024-01-30T13:05:25;11.00;99.90
15231;DHT22;32569;51.762;8.564;2024-01-30T13:07:51;11.00;99.90
15231;DHT22;32569;51.762;8.564;2024-01-30T13:10:18;11.00;99.90
15231;DHT22;32569;51.762;8.564;2024-01-30T13:12:45;11.00;99.90
15231;DHT22;32569;51.762;8.564;2024-01-30T13:15:13;11.00;99.90
15231;DHT22;32569;51.762;8.564;2024-01-30T13:17:40;10.90;99.90
15231;DHT22;32569;51.762;8.564;2024-01-30T13:20:08;11.00;99.90
15231;DHT22;32569;51.762;8.564;2024-01-30T13:22:35;11.00;99.90
15231;DHT22;32569;51.762;8.564;2024-01-30T13:25:04;11.00;99.90
15231;DHT22;32569;51.762;8.564;2024-01-30T13:27:31;11.00;99.90
15231;DHT22;32569;51.762;8.564;2024-01-30T13:29:57;11.00;99.90
15231;DHT22;32569;51.762;8.564;2024-01-30T13:32:25;10.90;99.90
15231;DHT22;32569;51.762;8.564;2024-01-30T13:34:52;10.90;99.90
15231;DHT22;32569;51.762;8.564;2024-01-30T13:37:18;10.90;99.90
15231;DHT22;32569;51.762;8.564;2024-01-30T13:39:45;10.80;99.90
15231;DHT22;32569;51.762;8.564;2024-01-30T13:42:12;10.80;99.90
15231;DHT22;32569;51.762;8.564;2024-01-30T13:44:38;10.80;99.90
15231;DHT22;32569;51.762;8.564;2024-01-30T13:47:05;10.80;99.90
15231;DHT22;32569;51.762;8.564;2024-01-30T13:49:33;10.80;99.90
15231;DHT22;32569;51.762;8.564;2024-01-30T13:52:00;10.70;99.90
15231;DHT22;32569;51.762;8.564;2024-01-30T13:54:26;10.70;99.90
15231;DHT22;32569;51.762;8.564;2024-01-30T13:56:53;10.80;99.90
15231;DHT22;32569;51.762;8.564;2024-01-30T13:59:20;10.70;99.90
15231;DHT22;32569;51.762;8.564;2024-01-30T14:01:50;10.70;99.90
15231;DHT22;32569;51.762;8.564;2024-01-30T14:04:16;10.60;99.90
15231;DHT22;32569;51.762;8.564;2024-01-30T14:06:44;10.60;99.90
15231;DHT22;32569;51.762;8.564;2024-01-30T14:09:11;10.60;99.90
15231;DHT22;32569;51.762;8.564;2024-01-30T14:11:40;10.70;99.90
15231;DHT22;32569;51.762;8.564;2024-01-30T14:14:07;10.80;99.90
15231;DHT22;32569;51.762;8.564;2024-01-30T14:16:34;10.80;99.90
15231;DHT22;32569;51.762;8.564;2024-01-30T14:19:00;10.90;99.90
15231;DHT22;32569;51.762;8.564;2024-01-30T14:21:27;11.00;99.90
15231;DHT22;32569;51.762;8.564;2024-01-30T14:23:55;11.00;99.90
15231;DHT22;32569;51.762;8.564;2024-01-30T14:26:21;11.10;99.90
15231;DHT22;32569;51.762;8.564;2024-01-30T14:28:48;11.10;99.90
15231;DHT22;32569;51.762;8.564;2024-01-30T14:31:15;11.20;99.90
15231;DHT22;32569;51.762;8.564;2024-01-30T14:33:44;11.30;99.90
15231;DHT22;32569;51.762;8.564;2024-01-30T14:36:10;11.30;99.90
15231;DHT22;32569;51.762;8.564;2024-01-30T14:38:37;11.30;99.90
15231;DHT22;32569;51.762;8.564;2024-01-30T14:41:05;11.30;99.90
15231;DHT22;32569;51.762;8.564;2024-01-30T14:43:32;11.30;99.90
15231;DHT22;32569;51.762;8.564;2024-01-30T14:45:58;11.20;99.90
15231;DHT22;32569;51.762;8.564;2024-01-30T14:48:25;11.30;99.90
15231;DHT22;32569;51.762;8.564;2024-01-30T14:50:52;11.30;99.90
15231;DHT22;32569;51.762;8.564;2024-01-30T14:53:18;11.30;99.90
15231;DHT22;32569;51.762;8.564;2024-01-30T14:55:45;11.30;99.90
15231;DHT22;32569;51.762;8.564;2024-01-30T14:58:13;11.30;99.90
15231;DHT22;32569;51.762;8.564;2024-01-30T15:00:39;11.30;99.90
15231;DHT22;32569;51.762;8.564;2024-01-30T15:03:06;11.30;99.90
15231;DHT22;32569;51.762;8.564;2024-01-30T15:05:33;11.30;99.90
15231;DHT22;32569;51.762;8.564;2024-01-30T15:07:59;11.30;99.90
15231;DHT22;32569;51.762;8.564;2024-01-30T15:10:26;11.30;99.90
15231;DHT22;32569;51.762;8.564;2024-01-30T15:12:53;11.30;99.90
15231;DHT22;32569;51.762;8.564;2024-01-30T15:15:21;11.30;99.90
15231;DHT22;32569;51.762;8.564;2024-01-30T15:17:47;11.30;99.90
15231;DHT22;32569;51.762;8.564;2024-01-30T15:20:14;11.30;99.90
15231;DHT22;32569;51.762;8.564;2024-01-30T15:22:43;11.20;99.90
15231;DHT22;32569;51.762;8.564;2024-01-30T15:25:10;11.20;99.90
15231;DHT22;32569;51.762;8.564;2024-01-30T15:27:38;11.20;99.90
15231;DHT22;32569;51.762;8.564;2024-01-30T15:30:06;11.30;99.90
15231;DHT22;32569;51.762;8.564;2024-01-30T15:32:34;11.20;99.90
15231;DHT22;32569;51.762;8.564;2024-01-30T15:35:00;11.20;99.90
15231;DHT22;32569;51.762;8.564;2024-01-30T15:37:29;11.20;99.90
15231;DHT22;32569;51.762;8.564;2024-01-30T15:39:55;11.20;99.90
15231;DHT22;32569;51.762;8.564;2024-01-30T15:42:22;11.20;99.90